sensor_id;sensor_type;location;lat;lon;timestamp;P1;durP1;ratioP1;P2;durP2;ratioP2
1957;SDS011;979;51.076;13.748;2023-02-28T00:02:07;19.90;;;18.83;;
1957;SDS011;979;51.076;13.748;2023-02-28T00:05:14;20.90;;;19.70;;
1957;SDS011;979;51.076;13.748;2023-02-28T00:07:53;21.00;;;19.70;;
1957;SDS011;979;51.076;13.748;2023-02-28T00:10:28;20.63;;;19.53;;
1957;SDS011;979;51.076;13.748;2023-02-28T00:13:03;20.17;;;19.00;;
1957;SDS011;979;51.076;13.748;2023-02-28T00:15:36;20.77;;;19.57;;
1957;SDS011;979;51.076;13.748;2023-02-28T00:18:08;20.77;;;19.70;;
1957;SDS011;979;51.076;13.748;2023-02-28T00:20:40;19.97;;;18.90;;
1957;SDS011;979;51.076;13.748;2023-02-28T00:23:11;20.03;;;19.13;;
1957;SDS011;979;51.076;13.748;2023-02-28T00:25:40;19.80;;;18.70;;
1957;SDS011;979;51.076;13.748;2023-02-28T00:28:09;18.73;;;18.03;;
1957;SDS011;979;51.076;13.748;2023-02-28T00:30:38;20.13;;;19.13;;
1957;SDS011;979;51.076;13.748;2023-02-28T00:33:08;21.23;;;20.23;;
1957;SDS011;979;51.076;13.748;2023-02-28T00:35:45;20.50;;;19.60;;
1957;SDS011;979;51.076;13.748;2023-02-28T00:38:22;19.70;;;18.97;;
1957;SDS011;979;51.076;13.748;2023-02-28T00:41:04;19.67;;;18.73;;
1957;SDS011;979;51.076;13.748;2023-02-28T00:43:39;20.93;;;19.90;;
1957;SDS011;979;51.076;13.748;2023-02-28T00:46:13;20.63;;;19.63;;
1957;SDS011;979;51.076;13.748;2023-02-28T00:48:46;19.90;;;19.00;;
1957;SDS011;979;51.076;13.748;2023-02-28T00:51:28;20.20;;;19.30;;
1957;SDS011;979;51.076;13.748;2023-02-28T00:54:03;19.17;;;18.37;;
1957;SDS011;979;51.076;13.748;2023-02-28T00:56:43;19.27;;;18.60;;
1957;SDS011;979;51.076;13.748;2023-02-28T00:59:22;22.27;;;20.47;;
1957;SDS011;979;51.076;13.748;2023-02-28T01:01:57;20.57;;;19.47;;
1957;SDS011;979;51.076;13.748;2023-02-28T01:04:31;20.03;;;19.03;;
1957;SDS011;979;51.076;13.748;2023-02-28T01:07:00;20.30;;;19.40;;
1957;SDS011;979;51.076;13.748;2023-02-28T01:09:28;19.33;;;18.33;;
1957;SDS011;979;51.076;13.748;2023-02-28T01:11:58;20.97;;;19.97;;
1957;SDS011;979;51.076;13.748;2023-02-28T01:14:29;21.13;;;19.53;;
1957;SDS011;979;51.076;13.748;2023-02-28T01:16:57;20.17;;;18.83;;
1957;SDS011;979;51.076;13.748;2023-02-28T01:19:26;20.37;;;19.37;;
1957;SDS011;979;51.076;13.748;2023-02-28T01:21:54;19.63;;;18.83;;
1957;SDS011;979;51.076;13.748;2023-02-28T01:24:22;21.10;;;19.70;;
1957;SDS011;979;51.076;13.748;2023-02-28T01:26:50;20.43;;;19.33;;
1957;SDS011;979;51.076;13.748;2023-02-28T01:29:21;21.00;;;19.83;;
1957;SDS011;979;51.076;13.748;2023-02-28T01:31:51;22.23;;;20.67;;
1957;SDS011;979;51.076;13.748;2023-02-28T01:34:20;18.80;;;18.10;;
1957;SDS011;979;51.076;13.748;2023-02-28T01:36:50;21.17;;;20.17;;
1957;SDS011;979;51.076;13.748;2023-02-28T01:39:18;20.73;;;19.63;;
1957;SDS011;979;51.076;13.748;2023-02-28T01:41:49;21.73;;;20.57;;
1957;SDS011;979;51.076;13.748;2023-02-28T01:47:40;20.57;;;19.33;;
1957;SDS011;979;51.076;13.748;2023-02-28T01:50:12;19.67;;;18.87;;
1957;SDS011;979;51.076;13.748;2023-02-28T01:52:43;21.27;;;20.10;;
1957;SDS011;979;51.076;13.748;2023-02-28T01:55:13;20.50;;;19.60;;
1957;SDS011;979;51.076;13.748;2023-02-28T01:57:45;19.90;;;18.90;;
1957;SDS011;979;51.076;13.748;2023-02-28T02:00:17;19.63;;;18.80;;
1957;SDS011;979;51.076;13.748;2023-02-28T02:02:56;19.67;;;18.87;;
1957;SDS011;979;51.076;13.748;2023-02-28T02:05:31;19.73;;;18.83;;
1957;SDS011;979;51.076;13.748;2023-02-28T02:08:09;19.43;;;18.70;;
1957;SDS011;979;51.076;13.748;2023-02-28T02:10:41;20.47;;;19.57;;
1957;SDS011;979;51.076;13.748;2023-02-28T02:13:14;20.70;;;19.80;;
1957;SDS011;979;51.076;13.748;2023-02-28T02:15:56;21.00;;;19.57;;
1957;SDS011;979;51.076;13.748;2023-02-28T02:18:36;18.40;;;17.80;;
1957;SDS011;979;51.076;13.748;2023-02-28T02:21:31;18.93;;;18.33;;
1957;SDS011;979;51.076;13.748;2023-02-28T02:27:36;21.80;;;20.90;;
1957;SDS011;979;51.076;13.748;2023-02-28T02:30:24;19.80;;;18.90;;
1957;SDS011;979;51.076;13.748;2023-02-28T02:33:20;19.67;;;18.87;;
1957;SDS011;979;51.076;13.748;2023-02-28T02:36:18;18.70;;;17.90;;
1957;SDS011;979;51.076;13.748;2023-02-28T02:38:53;20.73;;;19.40;;
1957;SDS011;979;51.076;13.748;2023-02-28T02:41:34;19.00;;;18.10;;
1957;SDS011;979;51.076;13.748;2023-02-28T02:44:10;20.43;;;19.53;;
1957;SDS011;979;51.076;13.748;2023-02-28T02:46:45;20.60;;;19.37;;
1957;SDS011;979;51.076;13.748;2023-02-28T02:49:28;19.97;;;18.97;;
1957;SDS011;979;51.076;13.748;2023-02-28T02:52:03;18.90;;;18.20;;
1957;SDS011;979;51.076;13.748;2023-02-28T02:54:36;19.97;;;19.10;;
1957;SDS011;979;51.076;13.748;2023-02-28T02:57:07;19.50;;;18.63;;
1957;SDS011;979;51.076;13.748;2023-02-28T02:59:38;20.13;;;18.97;;
1957;SDS011;979;51.076;13.748;2023-02-28T03:02:10;18.67;;;17.87;;
1957;SDS011;979;51.076;13.748;2023-02-28T03:04:42;19.23;;;18.43;;
1957;SDS011;979;51.076;13.748;2023-02-28T03:07:16;18.30;;;17.67;;
1957;SDS011;979;51.076;13.748;2023-02-28T03:09:50;22.60;;;21.37;;
1957;SDS011;979;51.076;13.748;2023-02-28T03:12:22;19.43;;;18.63;;
1957;SDS011;979;51.076;13.748;2023-02-28T03:14:56;21.00;;;19.27;;
1957;SDS011;979;51.076;13.748;2023-02-28T03:17:41;18.60;;;17.83;;
1957;SDS011;979;51.076;13.748;2023-02-28T03:20:27;19.03;;;17.87;;
1957;SDS011;979;51.076;13.748;2023-02-28T03:23:15;22.40;;;21.10;;
1957;SDS011;979;51.076;13.748;2023-02-28T03:25:51;19.87;;;18.87;;
1957;SDS011;979;51.076;13.748;2023-02-28T03:28:29;20.90;;;20.00;;
1957;SDS011;979;51.076;13.748;2023-02-28T03:31:10;19.67;;;18.87;;
1957;SDS011;979;51.076;13.748;2023-02-28T03:33:50;22.00;;;21.00;;
1957;SDS011;979;51.076;13.748;2023-02-28T03:36:32;21.63;;;20.53;;
1957;SDS011;979;51.076;13.748;2023-02-28T03:39:16;22.63;;;20.90;;
1957;SDS011;979;51.076;13.748;2023-02-28T03:41:56;20.90;;;19.57;;
1957;SDS011;979;51.076;13.748;2023-02-28T03:44:38;21.03;;;20.07;;
1957;SDS011;979;51.076;13.748;2023-02-28T03:47:13;21.20;;;20.20;;
1957;SDS011;979;51.076;13.748;2023-02-28T03:49:52;22.63;;;21.40;;
1957;SDS011;979;51.076;13.748;2023-02-28T03:52:44;21.53;;;20.27;;
1957;SDS011;979;51.076;13.748;2023-02-28T03:55:37;20.77;;;19.77;;
1957;SDS011;979;51.076;13.748;2023-02-28T03:58:17;21.47;;;20.17;;
1957;SDS011;979;51.076;13.748;2023-02-28T04:00:58;20.20;;;19.13;;
1957;SDS011;979;51.076;13.748;2023-02-28T04:03:46;22.27;;;20.07;;
1957;SDS011;979;51.076;13.748;2023-02-28T04:06:18;19.20;;;18.40;;
1957;SDS011;979;51.076;13.748;2023-02-28T04:08:56;18.77;;;17.97;;
1957;SDS011;979;51.076;13.748;2023-02-28T04:11:41;18.73;;;18.03;;
1957;SDS011;979;51.076;13.748;2023-02-28T04:14:11;19.00;;;17.90;;
1957;SDS011;979;51.076;13.748;2023-02-28T04:16:41;16.23;;;15.83;;
1957;SDS011;979;51.076;13.748;2023-02-28T04:19:12;17.17;;;16.57;;
1957;SDS011;979;51.076;13.748;2023-02-28T04:21:43;16.20;;;15.80;;
1957;SDS011;979;51.076;13.748;2023-02-28T04:24:12;16.27;;;15.87;;
1957;SDS011;979;51.076;13.748;2023-02-28T04:26:45;16.20;;;15.80;;
1957;SDS011;979;51.076;13.748;2023-02-28T04:29:18;16.40;;;16.00;;
1957;SDS011;979;51.076;13.748;2023-02-28T04:31:48;16.47;;;16.07;;
1957;SDS011;979;51.076;13.748;2023-02-28T04:34:22;16.10;;;15.70;;
1957;SDS011;979;51.076;13.748;2023-02-28T04:36:51;15.70;;;15.30;;
1957;SDS011;979;51.076;13.748;2023-02-28T04:39:37;15.50;;;15.10;;
1957;SDS011;979;51.076;13.748;2023-02-28T04:42:08;16.13;;;15.73;;
1957;SDS011;979;51.076;13.748;2023-02-28T04:44:36;16.70;;;16.30;;
1957;SDS011;979;51.076;13.748;2023-02-28T04:47:05;16.23;;;15.83;;
1957;SDS011;979;51.076;13.748;2023-02-28T04:49:33;15.60;;;15.20;;
1957;SDS011;979;51.076;13.748;2023-02-28T04:52:01;15.50;;;15.10;;
1957;SDS011;979;51.076;13.748;2023-02-28T04:54:30;16.00;;;15.60;;
1957;SDS011;979;51.076;13.748;2023-02-28T04:57:01;15.97;;;15.57;;
1957;SDS011;979;51.076;13.748;2023-02-28T04:59:38;15.30;;;14.90;;
1957;SDS011;979;51.076;13.748;2023-02-28T05:02:28;14.57;;;14.27;;
1957;SDS011;979;51.076;13.748;2023-02-28T05:05:12;14.83;;;14.53;;
1957;SDS011;979;51.076;13.748;2023-02-28T05:07:54;15.33;;;15.03;;
1957;SDS011;979;51.076;13.748;2023-02-28T05:10:31;16.00;;;15.60;;
1957;SDS011;979;51.076;13.748;2023-02-28T05:13:28;15.70;;;15.30;;
1957;SDS011;979;51.076;13.748;2023-02-28T05:16:06;15.37;;;14.97;;
1957;SDS011;979;51.076;13.748;2023-02-28T05:18:38;15.80;;;15.40;;
1957;SDS011;979;51.076;13.748;2023-02-28T05:21:25;18.37;;;17.83;;
1957;SDS011;979;51.076;13.748;2023-02-28T05:23:57;14.90;;;14.60;;
1957;SDS011;979;51.076;13.748;2023-02-28T05:26:26;15.70;;;15.30;;
1957;SDS011;979;51.076;13.748;2023-02-28T05:28:55;15.40;;;15.00;;
1957;SDS011;979;51.076;13.748;2023-02-28T05:31:25;14.83;;;14.53;;
1957;SDS011;979;51.076;13.748;2023-02-28T05:33:54;15.10;;;14.70;;
1957;SDS011;979;51.076;13.748;2023-02-28T05:36:23;15.63;;;14.97;;
1957;SDS011;979;51.076;13.748;2023-02-28T05:38:54;15.57;;;15.17;;
1957;SDS011;979;51.076;13.748;2023-02-28T05:41:28;15.57;;;15.17;;
1957;SDS011;979;51.076;13.748;2023-02-28T05:44:08;13.90;;;13.60;;
1957;SDS011;979;51.076;13.748;2023-02-28T05:46:39;14.10;;;13.80;;
1957;SDS011;979;51.076;13.748;2023-02-28T05:49:07;15.57;;;15.17;;
1957;SDS011;979;51.076;13.748;2023-02-28T05:51:36;14.40;;;14.10;;
1957;SDS011;979;51.076;13.748;2023-02-28T05:54:06;14.53;;;14.23;;
1957;SDS011;979;51.076;13.748;2023-02-28T05:56:39;14.77;;;14.47;;
1957;SDS011;979;51.076;13.748;2023-02-28T05:59:10;14.93;;;14.63;;
1957;SDS011;979;51.076;13.748;2023-02-28T06:01:41;15.00;;;14.70;;
1957;SDS011;979;51.076;13.748;2023-02-28T06:04:16;19.80;;;19.20;;
1957;SDS011;979;51.076;13.748;2023-02-28T06:06:57;15.00;;;14.70;;
1957;SDS011;979;51.076;13.748;2023-02-28T06:09:26;15.40;;;15.10;;
1957;SDS011;979;51.076;13.748;2023-02-28T06:11:54;20.13;;;18.60;;
1957;SDS011;979;51.076;13.748;2023-02-28T06:14:25;16.80;;;16.40;;
1957;SDS011;979;51.076;13.748;2023-02-28T06:16:54;16.57;;;16.17;;
1957;SDS011;979;51.076;13.748;2023-02-28T06:19:24;15.60;;;15.20;;
1957;SDS011;979;51.076;13.748;2023-02-28T06:21:54;16.00;;;15.60;;
1957;SDS011;979;51.076;13.748;2023-02-28T06:24:24;16.23;;;15.83;;
1957;SDS011;979;51.076;13.748;2023-02-28T06:26:54;15.10;;;14.70;;
1957;SDS011;979;51.076;13.748;2023-02-28T06:29:32;16.00;;;15.60;;
1957;SDS011;979;51.076;13.748;2023-02-28T06:32:02;15.80;;;15.40;;
1957;SDS011;979;51.076;13.748;2023-02-28T06:34:31;15.60;;;15.20;;
1957;SDS011;979;51.076;13.748;2023-02-28T06:37:00;16.10;;;15.70;;
1957;SDS011;979;51.076;13.748;2023-02-28T06:39:28;16.60;;;16.17;;
1957;SDS011;979;51.076;13.748;2023-02-28T06:41:57;17.03;;;16.63;;
1957;SDS011;979;51.076;13.748;2023-02-28T06:44:25;16.10;;;15.70;;
1957;SDS011;979;51.076;13.748;2023-02-28T06:47:00;16.47;;;16.03;;
1957;SDS011;979;51.076;13.748;2023-02-28T06:49:31;16.20;;;15.80;;
1957;SDS011;979;51.076;13.748;2023-02-28T06:52:01;15.47;;;15.13;;
1957;SDS011;979;51.076;13.748;2023-02-28T06:54:47;15.87;;;15.47;;
1957;SDS011;979;51.076;13.748;2023-02-28T06:57:27;17.40;;;16.90;;
1957;SDS011;979;51.076;13.748;2023-02-28T06:59:57;16.80;;;16.40;;
1957;SDS011;979;51.076;13.748;2023-02-28T07:02:26;16.70;;;16.30;;
1957;SDS011;979;51.076;13.748;2023-02-28T07:04:56;19.00;;;18.40;;
1957;SDS011;979;51.076;13.748;2023-02-28T07:07:25;17.20;;;16.80;;
1957;SDS011;979;51.076;13.748;2023-02-28T07:09:53;17.90;;;17.40;;
1957;SDS011;979;51.076;13.748;2023-02-28T07:12:21;17.00;;;16.60;;
1957;SDS011;979;51.076;13.748;2023-02-28T07:14:50;16.80;;;16.40;;
1957;SDS011;979;51.076;13.748;2023-02-28T07:17:18;16.70;;;16.30;;
1957;SDS011;979;51.076;13.748;2023-02-28T07:19:46;16.60;;;16.20;;
1957;SDS011;979;51.076;13.748;2023-02-28T07:22:16;18.00;;;17.40;;
1957;SDS011;979;51.076;13.748;2023-02-28T07:24:46;16.07;;;15.67;;
1957;SDS011;979;51.076;13.748;2023-02-28T07:27:14;16.70;;;16.30;;
1957;SDS011;979;51.076;13.748;2023-02-28T07:29:51;16.70;;;16.30;;
1957;SDS011;979;51.076;13.748;2023-02-28T07:32:21;18.57;;;17.87;;
1957;SDS011;979;51.076;13.748;2023-02-28T07:34:49;16.17;;;15.77;;
1957;SDS011;979;51.076;13.748;2023-02-28T07:37:19;17.50;;;16.87;;
1957;SDS011;979;51.076;13.748;2023-02-28T07:39:50;15.80;;;15.47;;
1957;SDS011;979;51.076;13.748;2023-02-28T07:42:18;16.40;;;16.00;;
1957;SDS011;979;51.076;13.748;2023-02-28T07:44:48;15.60;;;15.20;;
1957;SDS011;979;51.076;13.748;2023-02-28T07:47:18;15.67;;;15.27;;
1957;SDS011;979;51.076;13.748;2023-02-28T07:49:48;16.00;;;15.60;;
1957;SDS011;979;51.076;13.748;2023-02-28T07:52:16;16.00;;;15.60;;
1957;SDS011;979;51.076;13.748;2023-02-28T07:54:46;16.50;;;16.10;;
1957;SDS011;979;51.076;13.748;2023-02-28T07:57:14;16.70;;;16.30;;
1957;SDS011;979;51.076;13.748;2023-02-28T07:59:42;16.40;;;16.00;;
1957;SDS011;979;51.076;13.748;2023-02-28T08:02:11;16.00;;;15.60;;
1957;SDS011;979;51.076;13.748;2023-02-28T08:04:41;16.60;;;16.20;;
1957;SDS011;979;51.076;13.748;2023-02-28T08:07:11;15.63;;;15.23;;
1957;SDS011;979;51.076;13.748;2023-02-28T08:09:42;15.57;;;15.27;;
1957;SDS011;979;51.076;13.748;2023-02-28T08:12:12;15.60;;;15.20;;
1957;SDS011;979;51.076;13.748;2023-02-28T08:14:41;16.20;;;15.80;;
1957;SDS011;979;51.076;13.748;2023-02-28T08:17:13;16.53;;;16.13;;
1957;SDS011;979;51.076;13.748;2023-02-28T08:19:46;15.53;;;15.13;;
1957;SDS011;979;51.076;13.748;2023-02-28T08:22:14;15.27;;;14.87;;
1957;SDS011;979;51.076;13.748;2023-02-28T08:24:47;15.73;;;15.33;;
1957;SDS011;979;51.076;13.748;2023-02-28T08:27:16;15.53;;;15.13;;
1957;SDS011;979;51.076;13.748;2023-02-28T08:29:45;15.13;;;14.70;;
1957;SDS011;979;51.076;13.748;2023-02-28T08:32:13;15.70;;;15.30;;
1957;SDS011;979;51.076;13.748;2023-02-28T08:34:55;15.70;;;15.30;;
1957;SDS011;979;51.076;13.748;2023-02-28T08:37:24;15.40;;;15.10;;
1957;SDS011;979;51.076;13.748;2023-02-28T08:39:54;16.30;;;15.90;;
1957;SDS011;979;51.076;13.748;2023-02-28T08:42:22;16.40;;;16.00;;
1957;SDS011;979;51.076;13.748;2023-02-28T08:44:50;16.20;;;15.80;;
1957;SDS011;979;51.076;13.748;2023-02-28T08:47:19;16.60;;;16.20;;
1957;SDS011;979;51.076;13.748;2023-02-28T08:49:47;16.30;;;15.90;;
1957;SDS011;979;51.076;13.748;2023-02-28T08:52:16;16.87;;;16.47;;
1957;SDS011;979;51.076;13.748;2023-02-28T08:54:44;15.97;;;15.57;;
1957;SDS011;979;51.076;13.748;2023-02-28T08:57:14;17.00;;;16.50;;
1957;SDS011;979;51.076;13.748;2023-02-28T08:59:42;15.90;;;15.50;;
1957;SDS011;979;51.076;13.748;2023-02-28T09:02:12;15.90;;;15.50;;
1957;SDS011;979;51.076;13.748;2023-02-28T09:04:42;15.80;;;15.40;;
1957;SDS011;979;51.076;13.748;2023-02-28T09:07:11;15.83;;;15.43;;
1957;SDS011;979;51.076;13.748;2023-02-28T09:09:40;18.33;;;17.83;;
1957;SDS011;979;51.076;13.748;2023-02-28T09:12:25;15.80;;;15.40;;
1957;SDS011;979;51.076;13.748;2023-02-28T09:14:54;15.30;;;15.00;;
1957;SDS011;979;51.076;13.748;2023-02-28T09:17:22;16.70;;;16.30;;
1957;SDS011;979;51.076;13.748;2023-02-28T09:19:56;16.57;;;16.17;;
1957;SDS011;979;51.076;13.748;2023-02-28T09:22:25;16.53;;;16.13;;
1957;SDS011;979;51.076;13.748;2023-02-28T09:24:53;20.20;;;18.70;;
1957;SDS011;979;51.076;13.748;2023-02-28T09:27:21;16.70;;;16.30;;
1957;SDS011;979;51.076;13.748;2023-02-28T09:29:51;16.40;;;16.00;;
1957;SDS011;979;51.076;13.748;2023-02-28T09:32:19;15.90;;;15.50;;
1957;SDS011;979;51.076;13.748;2023-02-28T09:34:48;16.20;;;15.80;;
1957;SDS011;979;51.076;13.748;2023-02-28T09:37:16;16.83;;;16.30;;
1957;SDS011;979;51.076;13.748;2023-02-28T09:39:46;15.80;;;15.40;;
1957;SDS011;979;51.076;13.748;2023-02-28T09:42:18;16.20;;;15.80;;
1957;SDS011;979;51.076;13.748;2023-02-28T09:44:52;16.67;;;16.27;;
1957;SDS011;979;51.076;13.748;2023-02-28T09:47:25;16.20;;;15.80;;
1957;SDS011;979;51.076;13.748;2023-02-28T09:49:58;17.00;;;16.43;;
1957;SDS011;979;51.076;13.748;2023-02-28T09:52:33;18.03;;;17.43;;
1957;SDS011;979;51.076;13.748;2023-02-28T09:55:08;16.00;;;15.60;;
1957;SDS011;979;51.076;13.748;2023-02-28T09:57:47;17.03;;;16.53;;
1957;SDS011;979;51.076;13.748;2023-02-28T10:00:20;19.17;;;18.43;;
1957;SDS011;979;51.076;13.748;2023-02-28T10:02:54;17.87;;;17.37;;
1957;SDS011;979;51.076;13.748;2023-02-28T10:05:38;15.60;;;15.20;;
1957;SDS011;979;51.076;13.748;2023-02-28T10:08:12;16.00;;;15.60;;
1957;SDS011;979;51.076;13.748;2023-02-28T10:10:45;16.50;;;16.10;;
1957;SDS011;979;51.076;13.748;2023-02-28T10:13:19;16.37;;;15.97;;
1957;SDS011;979;51.076;13.748;2023-02-28T10:15:54;16.30;;;15.90;;
1957;SDS011;979;51.076;13.748;2023-02-28T10:18:38;17.13;;;16.63;;
1957;SDS011;979;51.076;13.748;2023-02-28T10:21:18;16.40;;;16.00;;
1957;SDS011;979;51.076;13.748;2023-02-28T10:23:49;16.00;;;15.60;;
1957;SDS011;979;51.076;13.748;2023-02-28T10:26:24;15.90;;;15.50;;
1957;SDS011;979;51.076;13.748;2023-02-28T10:28:57;16.10;;;15.70;;
1957;SDS011;979;51.076;13.748;2023-02-28T10:31:27;16.40;;;16.00;;
1957;SDS011;979;51.076;13.748;2023-02-28T10:33:56;16.90;;;16.50;;
1957;SDS011;979;51.076;13.748;2023-02-28T10:36:25;16.30;;;15.90;;
1957;SDS011;979;51.076;13.748;2023-02-28T10:38:55;17.63;;;17.07;;
1957;SDS011;979;51.076;13.748;2023-02-28T10:41:28;21.10;;;20.10;;
1957;SDS011;979;51.076;13.748;2023-02-28T10:44:12;23.07;;;21.50;;
1957;SDS011;979;51.076;13.748;2023-02-28T10:46:53;20.87;;;19.43;;
1957;SDS011;979;51.076;13.748;2023-02-28T10:49:23;23.83;;;22.40;;
1957;SDS011;979;51.076;13.748;2023-02-28T10:51:54;24.37;;;22.70;;
1957;SDS011;979;51.076;13.748;2023-02-28T10:54:26;24.30;;;22.50;;
1957;SDS011;979;51.076;13.748;2023-02-28T10:57:07;23.30;;;21.60;;
1957;SDS011;979;51.076;13.748;2023-02-28T10:59:44;22.97;;;21.13;;
1957;SDS011;979;51.076;13.748;2023-02-28T11:02:33;24.00;;;22.07;;
1957;SDS011;979;51.076;13.748;2023-02-28T11:08:01;24.27;;;22.80;;
1957;SDS011;979;51.076;13.748;2023-02-28T11:10:33;27.60;;;25.27;;
1957;SDS011;979;51.076;13.748;2023-02-28T11:13:02;24.87;;;22.90;;
1957;SDS011;979;51.076;13.748;2023-02-28T11:15:32;24.33;;;22.53;;
1957;SDS011;979;51.076;13.748;2023-02-28T11:18:18;23.87;;;22.10;;
1957;SDS011;979;51.076;13.748;2023-02-28T11:20:50;22.10;;;20.80;;
1957;SDS011;979;51.076;13.748;2023-02-28T11:23:21;22.13;;;20.53;;
1957;SDS011;979;51.076;13.748;2023-02-28T11:25:54;22.90;;;21.23;;
1957;SDS011;979;51.076;13.748;2023-02-28T11:28:28;23.87;;;21.90;;
1957;SDS011;979;51.076;13.748;2023-02-28T11:31:03;23.53;;;22.03;;
1957;SDS011;979;51.076;13.748;2023-02-28T11:33:44;23.43;;;21.63;;
1957;SDS011;979;51.076;13.748;2023-02-28T11:36:16;23.40;;;21.90;;
1957;SDS011;979;51.076;13.748;2023-02-28T11:38:51;23.00;;;21.40;;
1957;SDS011;979;51.076;13.748;2023-02-28T11:41:28;22.53;;;21.07;;
1957;SDS011;979;51.076;13.748;2023-02-28T11:44:23;22.60;;;21.03;;
1957;SDS011;979;51.076;13.748;2023-02-28T11:47:09;23.17;;;21.60;;
1957;SDS011;979;51.076;13.748;2023-02-28T11:49:48;22.50;;;21.10;;
1957;SDS011;979;51.076;13.748;2023-02-28T11:52:36;23.47;;;22.00;;
1957;SDS011;979;51.076;13.748;2023-02-28T11:55:14;24.93;;;23.23;;
1957;SDS011;979;51.076;13.748;2023-02-28T11:57:58;25.87;;;23.87;;
1957;SDS011;979;51.076;13.748;2023-02-28T12:00:42;23.57;;;21.97;;
1957;SDS011;979;51.076;13.748;2023-02-28T12:03:27;25.77;;;24.00;;
1957;SDS011;979;51.076;13.748;2023-02-28T12:06:09;26.77;;;25.27;;
1957;SDS011;979;51.076;13.748;2023-02-28T12:08:51;25.53;;;23.83;;
1957;SDS011;979;51.076;13.748;2023-02-28T12:11:34;26.10;;;24.60;;
1957;SDS011;979;51.076;13.748;2023-02-28T12:14:26;25.80;;;24.30;;
1957;SDS011;979;51.076;13.748;2023-02-28T12:17:16;27.13;;;25.20;;
1957;SDS011;979;51.076;13.748;2023-02-28T12:20:13;27.60;;;25.80;;
1957;SDS011;979;51.076;13.748;2023-02-28T12:22:55;27.20;;;25.30;;
1957;SDS011;979;51.076;13.748;2023-02-28T12:25:52;27.90;;;26.10;;
1957;SDS011;979;51.076;13.748;2023-02-28T12:28:27;25.67;;;24.13;;
1957;SDS011;979;51.076;13.748;2023-02-28T12:31:03;28.70;;;26.70;;
1957;SDS011;979;51.076;13.748;2023-02-28T12:33:35;27.97;;;26.17;;
1957;SDS011;979;51.076;13.748;2023-02-28T12:36:09;27.00;;;25.40;;
1957;SDS011;979;51.076;13.748;2023-02-28T12:38:47;26.50;;;24.70;;
1957;SDS011;979;51.076;13.748;2023-02-28T12:41:22;26.40;;;24.80;;
1957;SDS011;979;51.076;13.748;2023-02-28T12:44:00;29.60;;;27.57;;
1957;SDS011;979;51.076;13.748;2023-02-28T12:46:35;27.97;;;26.17;;
1957;SDS011;979;51.076;13.748;2023-02-28T12:49:13;29.90;;;27.70;;
1957;SDS011;979;51.076;13.748;2023-02-28T12:51:52;27.47;;;25.57;;
1957;SDS011;979;51.076;13.748;2023-02-28T12:54:24;29.67;;;27.63;;
1957;SDS011;979;51.076;13.748;2023-02-28T12:56:58;27.80;;;26.00;;
1957;SDS011;979;51.076;13.748;2023-02-28T12:59:35;27.93;;;26.10;;
1957;SDS011;979;51.076;13.748;2023-02-28T13:02:27;27.97;;;26.10;;
1957;SDS011;979;51.076;13.748;2023-02-28T13:05:17;30.53;;;28.43;;
1957;SDS011;979;51.076;13.748;2023-02-28T13:08:13;29.90;;;27.80;;
1957;SDS011;979;51.076;13.748;2023-02-28T13:10:58;30.60;;;28.50;;
1957;SDS011;979;51.076;13.748;2023-02-28T13:13:31;28.77;;;26.97;;
1957;SDS011;979;51.076;13.748;2023-02-28T13:16:00;28.17;;;26.37;;
1957;SDS011;979;51.076;13.748;2023-02-28T13:18:32;28.80;;;27.00;;
1957;SDS011;979;51.076;13.748;2023-02-28T13:21:04;29.67;;;27.67;;
1957;SDS011;979;51.076;13.748;2023-02-28T13:23:36;29.70;;;27.70;;
1957;SDS011;979;51.076;13.748;2023-02-28T13:26:09;32.13;;;30.13;;
1957;SDS011;979;51.076;13.748;2023-02-28T13:35:12;30.57;;;28.47;;
1957;SDS011;979;51.076;13.748;2023-02-28T13:38:12;31.60;;;29.40;;
1957;SDS011;979;51.076;13.748;2023-02-28T13:40:49;29.20;;;27.43;;
1957;SDS011;979;51.076;13.748;2023-02-28T13:43:19;30.77;;;28.77;;
1957;SDS011;979;51.076;13.748;2023-02-28T13:46:08;31.40;;;29.33;;
1957;SDS011;979;51.076;13.748;2023-02-28T13:48:40;29.77;;;27.87;;
1957;SDS011;979;51.076;13.748;2023-02-28T13:51:28;34.00;;;31.60;;
1957;SDS011;979;51.076;13.748;2023-02-28T13:54:13;30.07;;;27.73;;
1957;SDS011;979;51.076;13.748;2023-02-28T13:56:55;29.63;;;27.50;;
1957;SDS011;979;51.076;13.748;2023-02-28T13:59:38;30.90;;;28.60;;
1957;SDS011;979;51.076;13.748;2023-02-28T14:05:17;29.53;;;27.63;;
1957;SDS011;979;51.076;13.748;2023-02-28T14:07:48;28.97;;;26.60;;
1957;SDS011;979;51.076;13.748;2023-02-28T14:10:21;31.23;;;28.83;;
1957;SDS011;979;51.076;13.748;2023-02-28T14:16:36;30.00;;;27.80;;
1957;SDS011;979;51.076;13.748;2023-02-28T14:19:12;30.10;;;27.80;;
1957;SDS011;979;51.076;13.748;2023-02-28T14:22:39;29.17;;;26.77;;
1957;SDS011;979;51.076;13.748;2023-02-28T14:25:22;29.07;;;26.70;;
1957;SDS011;979;51.076;13.748;2023-02-28T14:27:58;28.20;;;26.40;;
1957;SDS011;979;51.076;13.748;2023-02-28T14:30:57;27.87;;;25.53;;
1957;SDS011;979;51.076;13.748;2023-02-28T14:33:38;29.77;;;27.37;;
1957;SDS011;979;51.076;13.748;2023-02-28T14:36:18;28.87;;;26.40;;
1957;SDS011;979;51.076;13.748;2023-02-28T14:38:51;28.43;;;25.93;;
1957;SDS011;979;51.076;13.748;2023-02-28T14:41:23;29.93;;;27.50;;
1957;SDS011;979;51.076;13.748;2023-02-28T14:43:57;28.00;;;26.07;;
1957;SDS011;979;51.076;13.748;2023-02-28T14:46:28;30.83;;;28.37;;
1957;SDS011;979;51.076;13.748;2023-02-28T14:49:09;28.40;;;26.30;;
1957;SDS011;979;51.076;13.748;2023-02-28T14:51:43;27.77;;;25.63;;
1957;SDS011;979;51.076;13.748;2023-02-28T14:57:22;27.27;;;25.17;;
1957;SDS011;979;51.076;13.748;2023-02-28T14:59:57;25.77;;;23.90;;
1957;SDS011;979;51.076;13.748;2023-02-28T15:02:29;27.40;;;25.40;;
1957;SDS011;979;51.076;13.748;2023-02-28T15:05:00;27.00;;;25.20;;
1957;SDS011;979;51.076;13.748;2023-02-28T15:08:02;26.17;;;24.27;;
1957;SDS011;979;51.076;13.748;2023-02-28T15:10:32;26.17;;;23.90;;
1957;SDS011;979;51.076;13.748;2023-02-28T15:13:02;26.90;;;24.90;;
1957;SDS011;979;51.076;13.748;2023-02-28T15:15:35;28.20;;;25.60;;
1957;SDS011;979;51.076;13.748;2023-02-28T15:18:29;24.30;;;22.50;;
1957;SDS011;979;51.076;13.748;2023-02-28T15:21:04;25.80;;;23.90;;
1957;SDS011;979;51.076;13.748;2023-02-28T15:23:37;25.33;;;23.43;;
1957;SDS011;979;51.076;13.748;2023-02-28T15:26:10;26.00;;;24.17;;
1957;SDS011;979;51.076;13.748;2023-02-28T15:28:41;26.27;;;24.20;;
1957;SDS011;979;51.076;13.748;2023-02-28T15:31:18;26.97;;;24.73;;
1957;SDS011;979;51.076;13.748;2023-02-28T15:33:53;25.10;;;23.17;;
1957;SDS011;979;51.076;13.748;2023-02-28T15:36:24;26.23;;;24.50;;
1957;SDS011;979;51.076;13.748;2023-02-28T15:38:57;26.43;;;24.43;;
1957;SDS011;979;51.076;13.748;2023-02-28T15:41:41;28.87;;;26.27;;
1957;SDS011;979;51.076;13.748;2023-02-28T15:44:13;26.80;;;24.47;;
1957;SDS011;979;51.076;13.748;2023-02-28T15:46:50;28.53;;;25.80;;
1957;SDS011;979;51.076;13.748;2023-02-28T15:49:23;25.10;;;22.90;;
1957;SDS011;979;51.076;13.748;2023-02-28T15:51:53;24.23;;;22.63;;
1957;SDS011;979;51.076;13.748;2023-02-28T15:54:28;28.97;;;26.33;;
1957;SDS011;979;51.076;13.748;2023-02-28T15:57:03;25.13;;;23.20;;
1957;SDS011;979;51.076;13.748;2023-02-28T15:59:42;25.30;;;23.40;;
1957;SDS011;979;51.076;13.748;2023-02-28T16:02:19;24.70;;;22.90;;